sensor_id;sensor_type;location;lat;lon;timestamp;pressure;altitude;pressure_sealevel;temperature;humidity
56950;BME280;74437;50.080;19.924;2024-01-30T00:00:33;100913.44;;;-2.24;91.32
56950;BME280;74437;50.080;19.924;2024-01-30T00:02:58;100910.31;;;-2.29;91.58
56950;BME280;74437;50.080;19.924;2024-01-30T00:05:23;100838.00;;;-2.80;91.59
56950;BME280;74437;50.080;19.924;2024-01-30T00:07:49;100917.56;;;-2.31;92.85
56950;BME280;74437;50.080;19.924;2024-01-30T00:10:15;100902.81;;;-2.35;92.21
56950;BME280;74437;50.080;19.924;2024-01-30T00:12:40;100916.69;;;-2.32;92.16
56950;BME280;74437;50.080;19.924;2024-01-30T00:15:05;100906.91;;;-2.31;92.79
56950;BME280;74437;50.080;19.924;2024-01-30T00:17:34;100913.19;;;-2.32;92.16
56950;BME280;74437;50.080;19.924;2024-01-30T00:19:59;100907.25;;;-2.36;91.50
56950;BME280;74437;50.080;19.924;2024-01-30T00:22:25;100910.16;;;-2.39;92.11
56950;BME280;74437;50.080;19.924;2024-01-30T00:24:50;100907.00;;;-2.44;92.38
56950;BME280;74437;50.080;19.924;2024-01-30T00:27:15;100913.91;;;-2.42;91.78
56950;BME280;74437;50.080;19.924;2024-01-30T00:29:41;100916.66;;;-2.43;92.38
56950;BME280;74437;50.080;19.924;2024-01-30T00:32:06;100920.03;;;-2.41;92.68
56950;BME280;74437;50.080;19.924;2024-01-30T00:34:31;100920.19;;;-2.43;91.37
56950;BME280;74437;50.080;19.924;2024-01-30T00:36:57;100889.69;;;-2.61;92.20
56950;BME280;74437;50.080;19.924;2024-01-30T00:39:22;100918.63;;;-2.45;91.67
56950;BME280;74437;50.080;19.924;2024-01-30T00:41:48;100888.00;;;-2.62;92.54
56950;BME280;74437;50.080;19.924;2024-01-30T00:44:13;100908.22;;;-2.48;92.60
56950;BME280;74437;50.080;19.924;2024-01-30T00:46:39;100908.94;;;-2.46;92.68
56950;BME280;74437;50.080;19.924;2024-01-30T00:49:04;100903.00;;;-2.50;91.31
56950;BME280;74437;50.080;19.924;2024-01-30T00:51:29;100905.66;;;-2.50;91.05
56950;BME280;74437;50.080;19.924;2024-01-30T00:53:55;100901.78;;;-2.57;91.80
56950;BME280;74437;50.080;19.924;2024-01-30T00:56:20;100912.16;;;-2.54;92.01
56950;BME280;74437;50.080;19.924;2024-01-30T00:58:45;100899.97;;;-2.57;91.95
56950;BME280;74437;50.080;19.924;2024-01-30T01:01:11;100855.25;;;-2.86;92.48
56950;BME280;74437;50.080;19.924;2024-01-30T01:03:36;100829.00;;;-3.02;92.00
56950;BME280;74437;50.080;19.924;2024-01-30T01:06:02;100898.38;;;-2.59;92.69
56950;BME280;74437;50.080;19.924;2024-01-30T01:08:27;100901.03;;;-2.59;91.94
56950;BME280;74437;50.080;19.924;2024-01-30T01:10:52;100894.16;;;-2.62;92.23
56950;BME280;74437;50.080;19.924;2024-01-30T01:13:17;100785.00;;;-3.29;92.09
56950;BME280;74437;50.080;19.924;2024-01-30T01:15:43;100866.94;;;-2.88;91.57
56950;BME280;74437;50.080;19.924;2024-01-30T01:18:08;100895.00;;;-2.73;91.60
56950;BME280;74437;50.080;19.924;2024-01-30T01:20:33;100891.84;;;-2.78;92.27
56950;BME280;74437;50.080;19.924;2024-01-30T01:22:58;100878.66;;;-2.79;91.91
56950;BME280;74437;50.080;19.924;2024-01-30T01:25:24;100878.78;;;-2.81;92.03
56950;BME280;74437;50.080;19.924;2024-01-30T01:27:49;100847.34;;;-2.99;93.01
56950;BME280;74437;50.080;19.924;2024-01-30T01:30:17;100865.47;;;-2.92;92.69
56950;BME280;74437;50.080;19.924;2024-01-30T01:32:48;100884.94;;;-2.80;92.67
56950;BME280;74437;50.080;19.924;2024-01-30T01:35:20;100879.84;;;-2.84;92.67
56950;BME280;74437;50.080;19.924;2024-01-30T01:37:45;100875.47;;;-2.96;92.44
56950;BME280;74437;50.080;19.924;2024-01-30T01:40:11;100883.88;;;-2.78;91.83
56950;BME280;74437;50.080;19.924;2024-01-30T01:42:36;100881.44;;;-2.81;92.23
56950;BME280;74437;50.080;19.924;2024-01-30T01:45:01;100871.41;;;-2.89;92.71
56950;BME280;74437;50.080;19.924;2024-01-30T01:47:27;100878.88;;;-2.82;92.58
56950;BME280;74437;50.080;19.924;2024-01-30T01:49:52;100880.25;;;-2.77;92.73
56950;BME280;74437;50.080;19.924;2024-01-30T01:52:17;100889.28;;;-2.79;91.74
56950;BME280;74437;50.080;19.924;2024-01-30T01:54:43;100886.53;;;-2.78;91.93
56950;BME280;74437;50.080;19.924;2024-01-30T01:57:08;100867.44;;;-2.83;92.10
56950;BME280;74437;50.080;19.924;2024-01-30T01:59:34;100882.69;;;-2.74;91.53
56950;BME280;74437;50.080;19.924;2024-01-30T02:02:01;100876.88;;;-2.79;92.02
56950;BME280;74437;50.080;19.924;2024-01-30T02:04:27;100873.94;;;-2.87;90.80
56950;BME280;74437;50.080;19.924;2024-01-30T02:06:52;100880.88;;;-2.97;91.17
56950;BME280;74437;50.080;19.924;2024-01-30T02:09:17;100871.00;;;-2.95;91.41
56950;BME280;74437;50.080;19.924;2024-01-30T02:11:43;100867.53;;;-2.96;92.49
56950;BME280;74437;50.080;19.924;2024-01-30T02:14:09;100842.63;;;-3.06;91.85
56950;BME280;74437;50.080;19.924;2024-01-30T02:16:34;100856.78;;;-2.94;91.69
56950;BME280;74437;50.080;19.924;2024-01-30T02:18:59;100881.16;;;-2.89;91.95
56950;BME280;74437;50.080;19.924;2024-01-30T02:21:24;100873.56;;;-2.94;91.21
56950;BME280;74437;50.080;19.924;2024-01-30T02:23:50;100854.25;;;-2.96;91.88
56950;BME280;74437;50.080;19.924;2024-01-30T02:26:15;100780.00;;;-3.45;91.35
56950;BME280;74437;50.080;19.924;2024-01-30T02:28:41;100845.16;;;-3.05;90.80
56950;BME280;74437;50.080;19.924;2024-01-30T02:31:06;100862.06;;;-2.94;90.96
56950;BME280;74437;50.080;19.924;2024-01-30T02:33:31;100867.63;;;-2.97;91.57
56950;BME280;74437;50.080;19.924;2024-01-30T02:35:57;100853.00;;;-3.03;91.58
56950;BME280;74437;50.080;19.924;2024-01-30T02:38:22;100858.41;;;-3.05;90.61
56950;BME280;74437;50.080;19.924;2024-01-30T02:40:48;100836.28;;;-3.17;91.31
56950;BME280;74437;50.080;19.924;2024-01-30T02:43:14;100852.50;;;-3.08;91.17
56950;BME280;74437;50.080;19.924;2024-01-30T02:45:39;100856.25;;;-3.11;91.76
56950;BME280;74437;50.080;19.924;2024-01-30T02:48:04;100848.50;;;-3.14;91.48
56950;BME280;74437;50.080;19.924;2024-01-30T02:50:30;100850.31;;;-3.15;91.80
56950;BME280;74437;50.080;19.924;2024-01-30T02:52:55;100832.59;;;-3.14;91.82
56950;BME280;74437;50.080;19.924;2024-01-30T02:55:20;100850.31;;;-3.15;90.74
56950;BME280;74437;50.080;19.924;2024-01-30T02:57:46;100841.59;;;-3.17;91.76
56950;BME280;74437;50.080;19.924;2024-01-30T03:00:11;100785.16;;;-3.54;91.00
56950;BME280;74437;50.080;19.924;2024-01-30T03:02:37;100847.13;;;-3.20;91.55
56950;BME280;74437;50.080;19.924;2024-01-30T03:05:03;100832.88;;;-3.30;91.93
56950;BME280;74437;50.080;19.924;2024-01-30T03:07:31;100850.75;;;-3.21;91.09
56950;BME280;74437;50.080;19.924;2024-01-30T03:09:56;100834.22;;;-3.24;90.99
56950;BME280;74437;50.080;19.924;2024-01-30T03:12:22;100838.22;;;-3.19;91.70
56950;BME280;74437;50.080;19.924;2024-01-30T03:14:47;100841.00;;;-3.20;91.34
56950;BME280;74437;50.080;19.924;2024-01-30T03:17:13;100844.63;;;-3.21;90.45
56950;BME280;74437;50.080;19.924;2024-01-30T03:19:38;100831.28;;;-3.33;90.25
56950;BME280;74437;50.080;19.924;2024-01-30T03:22:04;100819.66;;;-3.43;90.95
56950;BME280;74437;50.080;19.924;2024-01-30T03:24:29;100845.81;;;-3.25;90.94
56950;BME280;74437;50.080;19.924;2024-01-30T03:26:54;100842.53;;;-3.29;90.60
56950;BME280;74437;50.080;19.924;2024-01-30T03:29:20;100828.13;;;-3.38;90.62
56950;BME280;74437;50.080;19.924;2024-01-30T03:31:45;100848.91;;;-3.32;90.45
56950;BME280;74437;50.080;19.924;2024-01-30T03:34:10;100846.25;;;-3.32;91.13
56950;BME280;74437;50.080;19.924;2024-01-30T03:36:35;100844.56;;;-3.33;91.29
56950;BME280;74437;50.080;19.924;2024-01-30T03:39:01;100849.13;;;-3.35;90.47
56950;BME280;74437;50.080;19.924;2024-01-30T03:41:27;100847.22;;;-3.33;91.29
56950;BME280;74437;50.080;19.924;2024-01-30T03:43:52;100843.72;;;-3.33;90.79
56950;BME280;74437;50.080;19.924;2024-01-30T03:46:17;100853.25;;;-3.31;91.55
56950;BME280;74437;50.080;19.924;2024-01-30T03:48:43;100832.69;;;-3.40;90.45
56950;BME280;74437;50.080;19.924;2024-01-30T03:51:08;100835.41;;;-3.53;90.21
56950;BME280;74437;50.080;19.924;2024-01-30T03:53:34;100845.81;;;-3.50;91.40
56950;BME280;74437;50.080;19.924;2024-01-30T03:56:00;100797.53;;;-3.79;91.89
56950;BME280;74437;50.080;19.924;2024-01-30T03:58:25;100842.09;;;-3.47;91.80
56950;BME280;74437;50.080;19.924;2024-01-30T04:00:51;100840.28;;;-3.47;92.01
56950;BME280;74437;50.080;19.924;2024-01-30T04:03:17;100840.28;;;-3.47;91.25
56950;BME280;74437;50.080;19.924;2024-01-30T04:05:42;100807.47;;;-3.70;90.99
56950;BME280;74437;50.080;19.924;2024-01-30T04:08:08;100844.63;;;-3.46;91.23
56950;BME280;74437;50.080;19.924;2024-01-30T04:10:33;100833.16;;;-3.46;91.62
56950;BME280;74437;50.080;19.924;2024-01-30T04:12:58;100826.06;;;-3.46;91.01
56950;BME280;74437;50.080;19.924;2024-01-30T04:15:25;100828.72;;;-3.46;91.01
56950;BME280;74437;50.080;19.924;2024-01-30T04:17:50;100834.97;;;-3.47;90.40
56950;BME280;74437;50.080;19.924;2024-01-30T04:20:16;100835.19;;;-3.50;90.84
56950;BME280;74437;50.080;19.924;2024-01-30T04:22:45;100837.00;;;-3.50;91.34
56950;BME280;74437;50.080;19.924;2024-01-30T04:25:11;100831.72;;;-3.50;91.33
56950;BME280;74437;50.080;19.924;2024-01-30T04:27:37;100745.06;;;-4.11;90.74
56950;BME280;74437;50.080;19.924;2024-01-30T04:30:02;100814.47;;;-3.69;90.42
56950;BME280;74437;50.080;19.924;2024-01-30T04:32:28;100837.97;;;-3.51;91.06
56950;BME280;74437;50.080;19.924;2024-01-30T04:34:53;100834.81;;;-3.56;90.45
56950;BME280;74437;50.080;19.924;2024-01-30T04:37:18;100822.44;;;-3.69;90.56
56950;BME280;74437;50.080;19.924;2024-01-30T04:39:43;100833.34;;;-3.61;91.02
56950;BME280;74437;50.080;19.924;2024-01-30T04:42:09;100797.53;;;-3.79;90.55
56950;BME280;74437;50.080;19.924;2024-01-30T04:44:34;100840.72;;;-3.53;91.26
56950;BME280;74437;50.080;19.924;2024-01-30T04:47:00;100843.50;;;-3.54;90.53
56950;BME280;74437;50.080;19.924;2024-01-30T04:49:27;100850.72;;;-3.56;90.46
56950;BME280;74437;50.080;19.924;2024-01-30T04:51:52;100843.06;;;-3.61;90.28
56950;BME280;74437;50.080;19.924;2024-01-30T04:54:17;100847.66;;;-3.63;90.85
56950;BME280;74437;50.080;19.924;2024-01-30T04:56:43;100772.44;;;-4.11;90.45
56950;BME280;74437;50.080;19.924;2024-01-30T04:59:08;100847.03;;;-3.67;90.43
56950;BME280;74437;50.080;19.924;2024-01-30T05:01:34;100850.75;;;-3.69;90.80
56950;BME280;74437;50.080;19.924;2024-01-30T05:04:00;100851.50;;;-3.67;90.53
56950;BME280;74437;50.080;19.924;2024-01-30T05:06:26;100838.69;;;-3.86;90.97
56950;BME280;74437;50.080;19.924;2024-01-30T05:08:52;100854.16;;;-3.67;90.73
56950;BME280;74437;50.080;19.924;2024-01-30T05:11:17;100855.00;;;-3.67;90.37
56950;BME280;74437;50.080;19.924;2024-01-30T05:13:42;100855.94;;;-3.68;90.75
56950;BME280;74437;50.080;19.924;2024-01-30T05:16:07;100832.66;;;-3.76;90.97
56950;BME280;74437;50.080;19.924;2024-01-30T05:18:33;100851.09;;;-3.74;90.75
56950;BME280;74437;50.080;19.924;2024-01-30T05:20:58;100837.94;;;-3.76;90.39
56950;BME280;74437;50.080;19.924;2024-01-30T05:23:23;100846.72;;;-3.75;90.56
56950;BME280;74437;50.080;19.924;2024-01-30T05:25:49;100820.84;;;-3.96;91.10
56950;BME280;74437;50.080;19.924;2024-01-30T05:28:14;100852.25;;;-3.78;90.61
56950;BME280;74437;50.080;19.924;2024-01-30T05:30:39;100851.31;;;-3.77;91.06
56950;BME280;74437;50.080;19.924;2024-01-30T05:33:04;100842.34;;;-3.87;90.78
56950;BME280;74437;50.080;19.924;2024-01-30T05:35:30;100852.25;;;-3.78;90.60
56950;BME280;74437;50.080;19.924;2024-01-30T05:37:55;100858.19;;;-3.75;90.83
56950;BME280;74437;50.080;19.924;2024-01-30T05:40:20;100858.06;;;-3.73;91.28
56950;BME280;74437;50.080;19.924;2024-01-30T05:42:46;100860.94;;;-3.76;90.54
56950;BME280;74437;50.080;19.924;2024-01-30T05:45:11;100863.72;;;-3.78;90.59
56950;BME280;74437;50.080;19.924;2024-01-30T05:47:36;100838.09;;;-3.90;90.62
56950;BME280;74437;50.080;19.924;2024-01-30T05:50:02;100855.88;;;-3.79;90.86
56950;BME280;74437;50.080;19.924;2024-01-30T05:52:28;100860.34;;;-3.80;90.60
56950;BME280;74437;50.080;19.924;2024-01-30T05:54:53;100851.63;;;-3.82;90.44
56950;BME280;74437;50.080;19.924;2024-01-30T05:57:19;100858.25;;;-3.87;90.69
56950;BME280;74437;50.080;19.924;2024-01-30T05:59:44;100857.03;;;-3.83;90.51
56950;BME280;74437;50.080;19.924;2024-01-30T06:02:13;100860.97;;;-3.89;90.26
56950;BME280;74437;50.080;19.924;2024-01-30T06:04:38;100870.50;;;-3.86;89.84
56950;BME280;74437;50.080;19.924;2024-01-30T06:07:03;100864.19;;;-3.97;89.97
56950;BME280;74437;50.080;19.924;2024-01-30T06:09:30;100736.72;;;-4.68;90.11
56950;BME280;74437;50.080;19.924;2024-01-30T06:11:55;100863.84;;;-3.92;89.98
56950;BME280;74437;50.080;19.924;2024-01-30T06:14:21;100790.91;;;-4.35;90.55
56950;BME280;74437;50.080;19.924;2024-01-30T06:16:46;100846.06;;;-4.03;90.36
56950;BME280;74437;50.080;19.924;2024-01-30T06:19:11;100875.31;;;-3.92;89.85
56950;BME280;74437;50.080;19.924;2024-01-30T06:21:37;100785.09;;;-4.40;89.41
56950;BME280;74437;50.080;19.924;2024-01-30T06:24:03;100850.63;;;-4.05;89.55
56950;BME280;74437;50.080;19.924;2024-01-30T06:26:29;100860.69;;;-3.97;90.13
56950;BME280;74437;50.080;19.924;2024-01-30T06:28:54;100865.88;;;-3.96;89.97
56950;BME280;74437;50.080;19.924;2024-01-30T06:31:19;100828.28;;;-4.14;89.91
56950;BME280;74437;50.080;19.924;2024-01-30T06:33:47;100830.94;;;-4.14;89.80
56950;BME280;74437;50.080;19.924;2024-01-30T06:36:12;100863.13;;;-3.94;89.91
56950;BME280;74437;50.080;19.924;2024-01-30T06:38:37;100794.09;;;-4.30;89.93
56950;BME280;74437;50.080;19.924;2024-01-30T06:41:03;100855.34;;;-3.84;90.20
56950;BME280;74437;50.080;19.924;2024-01-30T06:43:28;100851.50;;;-3.80;89.74
56950;BME280;74437;50.080;19.924;2024-01-30T06:45:54;100860.72;;;-3.73;89.93
56950;BME280;74437;50.080;19.924;2024-01-30T06:48:19;100867.63;;;-3.70;88.67
56950;BME280;74437;50.080;19.924;2024-01-30T06:50:44;100866.84;;;-3.60;89.21
56950;BME280;74437;50.080;19.924;2024-01-30T06:53:10;100867.59;;;-3.33;88.41
56950;BME280;74437;50.080;19.924;2024-01-30T06:55:35;100864.72;;;-3.06;88.22
56950;BME280;74437;50.080;19.924;2024-01-30T06:58:01;100868.44;;;-2.61;87.67
56950;BME280;74437;50.080;19.924;2024-01-30T07:00:26;100865.00;;;-1.93;85.27
56950;BME280;74437;50.080;19.924;2024-01-30T07:02:51;100858.97;;;-1.40;82.26
56950;BME280;74437;50.080;19.924;2024-01-30T07:05:17;100859.00;;;-1.08;81.03
56950;BME280;74437;50.080;19.924;2024-01-30T07:07:42;100847.28;;;-0.63;79.22
56950;BME280;74437;50.080;19.924;2024-01-30T07:10:08;100847.63;;;-0.15;76.44
56950;BME280;74437;50.080;19.924;2024-01-30T07:12:33;100838.56;;;0.48;75.25
56950;BME280;74437;50.080;19.924;2024-01-30T07:14:58;100831.81;;;0.64;72.82
56950;BME280;74437;50.080;19.924;2024-01-30T07:17:24;100844.06;;;1.06;72.62
56950;BME280;74437;50.080;19.924;2024-01-30T07:19:50;100825.50;;;1.14;71.51
56950;BME280;74437;50.080;19.924;2024-01-30T07:22:15;100816.94;;;1.20;70.82
56950;BME280;74437;50.080;19.924;2024-01-30T07:24:43;100803.13;;;1.25;69.86
56950;BME280;74437;50.080;19.924;2024-01-30T07:27:14;100858.41;;;1.04;71.62
56950;BME280;74437;50.080;19.924;2024-01-30T07:29:39;100769.69;;;0.22;72.57
56950;BME280;74437;50.080;19.924;2024-01-30T07:32:05;100841.41;;;0.56;72.24
56950;BME280;74437;50.080;19.924;2024-01-30T07:34:30;100855.28;;;0.50;73.58
56950;BME280;74437;50.080;19.924;2024-01-30T07:36:55;100852.63;;;0.60;73.12
56950;BME280;74437;50.080;19.924;2024-01-30T07:39:21;100864.88;;;0.92;72.74
56950;BME280;74437;50.080;19.924;2024-01-30T07:41:46;100811.44;;;1.12;70.25
56950;BME280;74437;50.080;19.924;2024-01-30T07:44:11;100858.84;;;2.15;69.15
56950;BME280;74437;50.080;19.924;2024-01-30T07:46:37;100860.84;;;2.77;66.36
56950;BME280;74437;50.080;19.924;2024-01-30T07:49:02;100855.50;;;2.95;66.25
56950;BME280;74437;50.080;19.924;2024-01-30T07:51:27;100852.81;;;3.13;65.26
56950;BME280;74437;50.080;19.924;2024-01-30T07:53:54;100854.59;;;3.49;63.77
56950;BME280;74437;50.080;19.924;2024-01-30T07:56:20;100854.69;;;4.35;61.32
56950;BME280;74437;50.080;19.924;2024-01-30T07:58:45;100833.09;;;4.53;60.40
56950;BME280;74437;50.080;19.924;2024-01-30T08:01:11;100845.06;;;4.91;59.92
56950;BME280;74437;50.080;19.924;2024-01-30T08:03:36;100799.19;;;4.85;58.51
56950;BME280;74437;50.080;19.924;2024-01-30T08:06:05;100854.84;;;5.17;59.09
56950;BME280;74437;50.080;19.924;2024-01-30T08:08:30;100844.97;;;5.91;57.17
56950;BME280;74437;50.080;19.924;2024-01-30T08:10:55;100847.25;;;6.19;56.42
56950;BME280;74437;50.080;19.924;2024-01-30T08:13:21;100832.31;;;6.00;56.19
56950;BME280;74437;50.080;19.924;2024-01-30T08:15:46;100845.91;;;6.15;56.19
56950;BME280;74437;50.080;19.924;2024-01-30T08:18:11;100836.53;;;6.42;55.25
56950;BME280;74437;50.080;19.924;2024-01-30T08:20:37;100855.19;;;6.75;54.88
56950;BME280;74437;50.080;19.924;2024-01-30T08:23:02;100854.06;;;6.93;54.73
56950;BME280;74437;50.080;19.924;2024-01-30T08:25:27;100835.47;;;7.74;51.97
56950;BME280;74437;50.080;19.924;2024-01-30T08:27:52;100856.41;;;7.87;51.58
56950;BME280;74437;50.080;19.924;2024-01-30T08:30:19;100830.16;;;8.11;50.92
56950;BME280;74437;50.080;19.924;2024-01-30T08:32:44;100849.19;;;8.40;50.87
56950;BME280;74437;50.080;19.924;2024-01-30T08:35:09;100853.53;;;8.19;50.81
56950;BME280;74437;50.080;19.924;2024-01-30T08:37:35;100776.41;;;7.86;50.73
56950;BME280;74437;50.080;19.924;2024-01-30T08:40:00;100849.00;;;8.93;49.34
56950;BME280;74437;50.080;19.924;2024-01-30T08:42:28;100845.94;;;8.81;50.41
56950;BME280;74437;50.080;19.924;2024-01-30T08:44:53;100850.78;;;9.07;49.48
56950;BME280;74437;50.080;19.924;2024-01-30T08:47:19;100809.00;;;8.00;51.79
56950;BME280;74437;50.080;19.924;2024-01-30T08:49:44;100847.13;;;8.72;50.96
56950;BME280;74437;50.080;19.924;2024-01-30T08:52:10;100809.75;;;9.04;49.82
56950;BME280;74437;50.080;19.924;2024-01-30T08:54:36;100821.22;;;9.06;49.45
56950;BME280;74437;50.080;19.924;2024-01-30T08:57:01;100815.38;;;9.59;48.01
56950;BME280;74437;50.080;19.924;2024-01-30T08:59:27;100840.19;;;9.63;48.44
56950;BME280;74437;50.080;19.924;2024-01-30T09:01:52;100842.75;;;10.06;47.54
56950;BME280;74437;50.080;19.924;2024-01-30T09:04:20;100844.25;;;10.16;47.47
56950;BME280;74437;50.080;19.924;2024-01-30T09:06:45;100841.94;;;10.12;47.36
56950;BME280;74437;50.080;19.924;2024-01-30T09:09:11;100806.22;;;10.02;47.47
56950;BME280;74437;50.080;19.924;2024-01-30T09:11:38;100806.91;;;10.11;47.16
56950;BME280;74437;50.080;19.924;2024-01-30T09:14:03;100836.69;;;10.46;46.18
56950;BME280;74437;50.080;19.924;2024-01-30T09:16:28;100819.56;;;10.46;45.83
56950;BME280;74437;50.080;19.924;2024-01-30T09:18:53;100822.81;;;10.96;45.38
56950;BME280;74437;50.080;19.924;2024-01-30T09:21:19;100830.56;;;10.99;44.56
56950;BME280;74437;50.080;19.924;2024-01-30T09:23:44;100791.72;;;10.92;44.44
56950;BME280;74437;50.080;19.924;2024-01-30T09:26:09;100839.53;;;11.13;44.33
56950;BME280;74437;50.080;19.924;2024-01-30T09:28:36;100823.53;;;12.11;43.00
56950;BME280;74437;50.080;19.924;2024-01-30T09:31:02;100803.19;;;11.21;44.58
56950;BME280;74437;50.080;19.924;2024-01-30T09:33:27;100828.47;;;11.22;45.06
56950;BME280;74437;50.080;19.924;2024-01-30T09:35:53;100764.09;;;10.48;45.73
56950;BME280;74437;50.080;19.924;2024-01-30T09:38:18;100738.81;;;10.34;44.82
56950;BME280;74437;50.080;19.924;2024-01-30T09:40:44;100794.41;;;10.92;44.10
56950;BME280;74437;50.080;19.924;2024-01-30T09:43:17;100830.31;;;11.61;43.04
56950;BME280;74437;50.080;19.924;2024-01-30T09:45:44;100763.72;;;11.05;42.90
56950;BME280;74437;50.080;19.924;2024-01-30T09:48:11;100823.03;;;11.49;42.83
56950;BME280;74437;50.080;19.924;2024-01-30T09:50:36;100760.75;;;11.54;42.11
56950;BME280;74437;50.080;19.924;2024-01-30T09:53:03;100782.44;;;12.72;40.75
56950;BME280;74437;50.080;19.924;2024-01-30T09:55:29;100817.72;;;12.53;41.40
56950;BME280;74437;50.080;19.924;2024-01-30T09:57:54;100803.28;;;12.85;40.42
56950;BME280;74437;50.080;19.924;2024-01-30T10:00:19;100791.88;;;13.89;38.96
56950;BME280;74437;50.080;19.924;2024-01-30T10:02:45;100805.63;;;13.06;40.39
56950;BME280;74437;50.080;19.924;2024-01-30T10:05:15;100745.25;;;12.59;40.68
56950;BME280;74437;50.080;19.924;2024-01-30T10:07:52;100790.81;;;12.70;40.02
56950;BME280;74437;50.080;19.924;2024-01-30T10:10:17;100779.56;;;13.43;38.22
56950;BME280;74437;50.080;19.924;2024-01-30T10:12:43;100789.13;;;13.27;38.85
56950;BME280;74437;50.080;19.924;2024-01-30T10:15:08;100788.97;;;13.47;38.41
56950;BME280;74437;50.080;19.924;2024-01-30T10:17:37;100771.81;;;13.39;37.34
56950;BME280;74437;50.080;19.924;2024-01-30T10:20:04;100768.84;;;14.34;35.87
56950;BME280;74437;50.080;19.924;2024-01-30T10:22:30;100767.34;;;14.69;35.58
56950;BME280;74437;50.080;19.924;2024-01-30T10:24:55;100745.22;;;15.37;34.33
56950;BME280;74437;50.080;19.924;2024-01-30T10:27:25;100763.84;;;15.16;34.27
56950;BME280;74437;50.080;19.924;2024-01-30T10:29:52;100759.09;;;14.26;35.82
56950;BME280;74437;50.080;19.924;2024-01-30T10:32:17;100758.41;;;15.04;34.81
56950;BME280;74437;50.080;19.924;2024-01-30T10:34:43;100759.59;;;15.20;34.83
56950;BME280;74437;50.080;19.924;2024-01-30T10:37:11;100746.28;;;15.36;34.12
56950;BME280;74437;50.080;19.924;2024-01-30T10:39:45;100755.22;;;16.07;33.35
56950;BME280;74437;50.080;19.924;2024-01-30T10:42:15;100742.56;;;14.40;34.44
56950;BME280;74437;50.080;19.924;2024-01-30T10:47:30;100732.09;;;13.88;35.90
56950;BME280;74437;50.080;19.924;2024-01-30T10:49:56;100687.22;;;14.21;35.55
56950;BME280;74437;50.080;19.924;2024-01-30T10:52:23;100735.63;;;14.07;34.91
56950;BME280;74437;50.080;19.924;2024-01-30T10:54:54;100726.59;;;13.76;35.79
56950;BME280;74437;50.080;19.924;2024-01-30T10:57:23;100728.50;;;13.57;35.52
56950;BME280;74437;50.080;19.924;2024-01-30T10:59:48;100724.31;;;13.10;35.85
56950;BME280;74437;50.080;19.924;2024-01-30T11:02:14;100688.50;;;12.88;36.41
56950;BME280;74437;50.080;19.924;2024-01-30T11:04:43;100719.78;;;12.46;36.95
56950;BME280;74437;50.080;19.924;2024-01-30T11:07:19;100719.44;;;13.37;36.60
56950;BME280;74437;50.080;19.924;2024-01-30T11:09:59;100708.88;;;13.48;36.36
56950;BME280;74437;50.080;19.924;2024-01-30T11:12:38;100691.81;;;12.90;37.10
56950;BME280;74437;50.080;19.924;2024-01-30T11:15:07;100716.06;;;11.43;38.82
56950;BME280;74437;50.080;19.924;2024-01-30T11:20:12;100716.06;;;9.73;41.56
56950;BME280;74437;50.080;19.924;2024-01-30T11:22:47;100688.88;;;9.46;42.78
56950;BME280;74437;50.080;19.924;2024-01-30T11:25:13;100642.13;;;8.96;42.94
56950;BME280;74437;50.080;19.924;2024-01-30T11:27:39;100692.41;;;9.12;43.79
56950;BME280;74437;50.080;19.924;2024-01-30T11:30:05;100703.84;;;9.07;43.52
56950;BME280;74437;50.080;19.924;2024-01-30T11:32:31;100700.91;;;8.52;43.88
56950;BME280;74437;50.080;19.924;2024-01-30T11:34:56;100679.28;;;7.93;45.45
56950;BME280;74437;50.080;19.924;2024-01-30T11:37:25;100689.56;;;8.04;46.71
56950;BME280;74437;50.080;19.924;2024-01-30T11:39:53;100697.03;;;8.02;47.12
56950;BME280;74437;50.080;19.924;2024-01-30T11:42:19;100687.63;;;7.98;47.13
56950;BME280;74437;50.080;19.924;2024-01-30T11:44:48;100689.69;;;7.96;46.83
56950;BME280;74437;50.080;19.924;2024-01-30T11:47:13;100689.19;;;7.71;47.53
56950;BME280;74437;50.080;19.924;2024-01-30T11:49:39;100678.22;;;7.57;47.73
56950;BME280;74437;50.080;19.924;2024-01-30T11:52:05;100644.19;;;7.41;47.99
56950;BME280;74437;50.080;19.924;2024-01-30T11:54:30;100682.78;;;7.42;50.02
56950;BME280;74437;50.080;19.924;2024-01-30T11:56:55;100661.22;;;7.27;49.40
56950;BME280;74437;50.080;19.924;2024-01-30T11:59:21;100676.00;;;7.31;49.19
56950;BME280;74437;50.080;19.924;2024-01-30T12:01:46;100667.81;;;7.39;49.17
56950;BME280;74437;50.080;19.924;2024-01-30T12:04:12;100679.28;;;7.26;49.03
56950;BME280;74437;50.080;19.924;2024-01-30T12:06:37;100676.38;;;7.28;48.52
56950;BME280;74437;50.080;19.924;2024-01-30T12:09:03;100665.88;;;7.33;49.12
56950;BME280;74437;50.080;19.924;2024-01-30T12:11:29;100674.63;;;7.20;50.03
56950;BME280;74437;50.080;19.924;2024-01-30T12:13:55;100657.88;;;7.10;50.03
56950;BME280;74437;50.080;19.924;2024-01-30T12:16:21;100663.25;;;7.25;50.24
56950;BME280;74437;50.080;19.924;2024-01-30T12:18:47;100656.28;;;7.30;49.86
56950;BME280;74437;50.080;19.924;2024-01-30T12:21:12;100660.94;;;7.52;49.73
56950;BME280;74437;50.080;19.924;2024-01-30T12:23:41;100640.84;;;7.39;51.00
56950;BME280;74437;50.080;19.924;2024-01-30T12:26:06;100660.03;;;7.66;50.52
56950;BME280;74437;50.080;19.924;2024-01-30T12:28:33;100643.84;;;7.66;50.12
56950;BME280;74437;50.080;19.924;2024-01-30T12:31:05;100658.06;;;7.75;49.93
56950;BME280;74437;50.080;19.924;2024-01-30T12:33:30;100652.59;;;7.68;49.84
56950;BME280;74437;50.080;19.924;2024-01-30T12:35:57;100657.22;;;7.53;49.59
56950;BME280;74437;50.080;19.924;2024-01-30T12:38:24;100647.78;;;7.64;48.94
56950;BME280;74437;50.080;19.924;2024-01-30T12:40:53;100650.47;;;7.64;50.07